sensor_id;sensor_type;location;lat;lon;timestamp;P1;P2;P0
12246;PMS7003;6186;52.022;4.692;2023-05-07T00:00:57;12.00;11.00;6.00
12246;PMS7003;6186;52.022;4.692;2023-05-07T00:03:22;13.00;12.75;7.75
12246;PMS7003;6186;52.022;4.692;2023-05-07T00:05:47;15.75;12.50;7.00
12246;PMS7003;6186;52.022;4.692;2023-05-07T00:08:12;14.75;12.00;6.00
12246;PMS7003;6186;52.022;4.692;2023-05-07T00:10:38;11.25;11.00;7.00
12246;PMS7003;6186;52.022;4.692;2023-05-07T00:13:03;11.75;11.50;6.75
12246;PMS7003;6186;52.022;4.692;2023-05-07T00:15:28;12.25;11.00;7.00
12246;PMS7003;6186;52.022;4.692;2023-05-07T00:17:53;11.00;11.00;6.50
12246;PMS7003;6186;52.022;4.692;2023-05-07T00:20:19;14.75;12.25;7.00
12246;PMS7003;6186;52.022;4.692;2023-05-07T00:22:44;14.25;12.25;7.00
12246;PMS7003;6186;52.022;4.692;2023-05-07T00:25:09;19.00;16.50;7.75
12246;PMS7003;6186;52.022;4.692;2023-05-07T00:27:34;15.25;11.00;6.75
12246;PMS7003;6186;52.022;4.692;2023-05-07T00:29:59;14.25;12.25;6.50
12246;PMS7003;6186;52.022;4.692;2023-05-07T00:32:25;13.00;11.75;7.00
12246;PMS7003;6186;52.022;4.692;2023-05-07T00:34:50;14.25;12.00;8.00
12246;PMS7003;6186;52.022;4.692;2023-05-07T00:37:15;14.25;13.00;7.00
12246;PMS7003;6186;52.022;4.692;2023-05-07T00:39:40;15.75;12.50;7.00
12246;PMS7003;6186;52.022;4.692;2023-05-07T00:42:06;14.00;12.25;7.00
12246;PMS7003;6186;52.022;4.692;2023-05-07T00:44:31;13.25;12.00;6.00
12246;PMS7003;6186;52.022;4.692;2023-05-07T00:46:59;14.00;12.00;7.00
12246;PMS7003;6186;52.022;4.692;2023-05-07T00:49:38;14.00;13.20;7.80
12246;PMS7003;6186;52.022;4.692;2023-05-07T00:52:05;14.40;11.80;7.40
12246;PMS7003;6186;52.022;4.692;2023-05-07T00:54:31;16.40;13.00;7.40
12246;PMS7003;6186;52.022;4.692;2023-05-07T00:56:58;16.80;15.60;8.40
12246;PMS7003;6186;52.022;4.692;2023-05-07T00:59:23;20.50;18.25;10.00
12246;PMS7003;6186;52.022;4.692;2023-05-07T01:01:48;16.25;14.50;8.00
12246;PMS7003;6186;52.022;4.692;2023-05-07T01:04:14;16.00;13.50;7.75
12246;PMS7003;6186;52.022;4.692;2023-05-07T01:06:39;21.75;18.25;9.00
12246;PMS7003;6186;52.022;4.692;2023-05-07T01:09:05;22.00;18.80;11.00
12246;PMS7003;6186;52.022;4.692;2023-05-07T01:11:31;17.50;16.00;8.00
12246;PMS7003;6186;52.022;4.692;2023-05-07T01:13:57;18.50;16.50;9.00
12246;PMS7003;6186;52.022;4.692;2023-05-07T01:16:24;14.80;13.60;7.60
12246;PMS7003;6186;52.022;4.692;2023-05-07T01:18:49;14.25;13.50;7.50
12246;PMS7003;6186;52.022;4.692;2023-05-07T01:21:15;14.75;14.00;8.00
12246;PMS7003;6186;52.022;4.692;2023-05-07T01:23:42;15.20;13.40;7.40
12246;PMS7003;6186;52.022;4.692;2023-05-07T01:26:08;19.20;16.80;8.20
12246;PMS7003;6186;52.022;4.692;2023-05-07T01:28:34;23.75;18.25;9.50
12246;PMS7003;6186;52.022;4.692;2023-05-07T01:31:00;14.25;14.00;8.00
12246;PMS7003;6186;52.022;4.692;2023-05-07T01:33:27;16.80;13.80;8.80
12246;PMS7003;6186;52.022;4.692;2023-05-07T01:35:56;17.80;14.20;8.20
12246;PMS7003;6186;52.022;4.692;2023-05-07T01:38:21;17.25;16.00;9.00
12246;PMS7003;6186;52.022;4.692;2023-05-07T01:40:48;17.20;15.40;9.20
12246;PMS7003;6186;52.022;4.692;2023-05-07T01:43:13;17.75;16.25;9.50
12246;PMS7003;6186;52.022;4.692;2023-05-07T01:45:38;16.00;13.75;8.00
12246;PMS7003;6186;52.022;4.692;2023-05-07T01:48:05;19.20;17.00;10.60
12246;PMS7003;6186;52.022;4.692;2023-05-07T01:50:32;20.40;16.80;10.20
12246;PMS7003;6186;52.022;4.692;2023-05-07T01:52:59;16.00;15.60;9.20
12246;PMS7003;6186;52.022;4.692;2023-05-07T01:55:26;14.40;13.40;8.20
12246;PMS7003;6186;52.022;4.692;2023-05-07T01:57:51;15.50;14.75;8.75
12246;PMS7003;6186;52.022;4.692;2023-05-07T02:00:17;15.25;12.25;8.00
12246;PMS7003;6186;52.022;4.692;2023-05-07T02:02:42;15.00;14.00;9.00
12246;PMS7003;6186;52.022;4.692;2023-05-07T02:05:07;16.00;14.25;8.00
12246;PMS7003;6186;52.022;4.692;2023-05-07T02:07:33;15.00;13.50;8.00
12246;PMS7003;6186;52.022;4.692;2023-05-07T02:09:58;12.75;11.75;6.75
12246;PMS7003;6186;52.022;4.692;2023-05-07T02:12:23;17.50;15.00;10.00
12246;PMS7003;6186;52.022;4.692;2023-05-07T02:14:49;16.50;13.25;8.00
12246;PMS7003;6186;52.022;4.692;2023-05-07T02:17:14;14.25;11.50;7.00
12246;PMS7003;6186;52.022;4.692;2023-05-07T02:19:39;14.25;13.25;8.75
12246;PMS7003;6186;52.022;4.692;2023-05-07T02:22:05;14.00;12.00;7.00
12246;PMS7003;6186;52.022;4.692;2023-05-07T02:24:30;14.50;12.25;8.00
12246;PMS7003;6186;52.022;4.692;2023-05-07T02:26:55;13.25;11.00;7.25
12246;PMS7003;6186;52.022;4.692;2023-05-07T02:29:20;12.25;10.50;6.75
12246;PMS7003;6186;52.022;4.692;2023-05-07T02:31:46;12.75;11.75;7.00
12246;PMS7003;6186;52.022;4.692;2023-05-07T02:34:11;14.25;10.50;6.75
12246;PMS7003;6186;52.022;4.692;2023-05-07T02:36:36;12.00;10.50;6.25
12246;PMS7003;6186;52.022;4.692;2023-05-07T02:39:01;11.25;10.50;6.00
12246;PMS7003;6186;52.022;4.692;2023-05-07T02:41:28;10.40;10.40;7.00
12246;PMS7003;6186;52.022;4.692;2023-05-07T02:43:53;11.50;11.00;7.00
12246;PMS7003;6186;52.022;4.692;2023-05-07T02:46:18;9.25;8.75;7.00
12246;PMS7003;6186;52.022;4.692;2023-05-07T02:48:43;11.75;10.50;6.75
12246;PMS7003;6186;52.022;4.692;2023-05-07T02:51:09;11.25;10.50;6.00
12246;PMS7003;6186;52.022;4.692;2023-05-07T02:53:34;10.00;9.25;5.00
12246;PMS7003;6186;52.022;4.692;2023-05-07T02:56:01;11.25;10.50;6.25
12246;PMS7003;6186;52.022;4.692;2023-05-07T02:58:27;11.40;10.00;6.00
12246;PMS7003;6186;52.022;4.692;2023-05-07T03:00:52;12.50;11.25;6.00
12246;PMS7003;6186;52.022;4.692;2023-05-07T03:03:18;10.80;10.00;6.40
12246;PMS7003;6186;52.022;4.692;2023-05-07T03:05:43;11.00;10.00;6.00
12246;PMS7003;6186;52.022;4.692;2023-05-07T03:08:09;16.00;12.25;8.00
12246;PMS7003;6186;52.022;4.692;2023-05-07T03:10:35;11.40;11.00;7.00
12246;PMS7003;6186;52.022;4.692;2023-05-07T03:13:01;13.60;11.40;7.00
12246;PMS7003;6186;52.022;4.692;2023-05-07T03:15:26;11.25;10.00;6.75
12246;PMS7003;6186;52.022;4.692;2023-05-07T03:17:51;10.00;9.00;5.00
12246;PMS7003;6186;52.022;4.692;2023-05-07T03:20:17;9.25;9.25;6.00
12246;PMS7003;6186;52.022;4.692;2023-05-07T03:22:42;9.75;9.00;5.25
12246;PMS7003;6186;52.022;4.692;2023-05-07T03:25:07;9.75;9.00;5.00
12246;PMS7003;6186;52.022;4.692;2023-05-07T03:27:33;8.80;8.80;5.00
12246;PMS7003;6186;52.022;4.692;2023-05-07T03:29:59;9.00;9.00;5.75
12246;PMS7003;6186;52.022;4.692;2023-05-07T03:32:24;10.40;10.20;6.40
12246;PMS7003;6186;52.022;4.692;2023-05-07T03:34:50;9.00;8.75;4.25
12246;PMS7003;6186;52.022;4.692;2023-05-07T03:37:15;10.00;8.25;5.00
12246;PMS7003;6186;52.022;4.692;2023-05-07T03:39:40;10.50;8.50;5.00
12246;PMS7003;6186;52.022;4.692;2023-05-07T03:42:05;9.75;9.00;5.00
12246;PMS7003;6186;52.022;4.692;2023-05-07T03:44:31;8.75;7.50;4.00
12246;PMS7003;6186;52.022;4.692;2023-05-07T03:46:56;7.00;7.00;4.25
12246;PMS7003;6186;52.022;4.692;2023-05-07T03:49:21;8.50;8.50;5.00
12246;PMS7003;6186;52.022;4.692;2023-05-07T03:51:47;9.75;9.25;5.00
12246;PMS7003;6186;52.022;4.692;2023-05-07T03:54:12;10.00;9.00;5.50
12246;PMS7003;6186;52.022;4.692;2023-05-07T03:56:37;9.25;8.00;4.75
12246;PMS7003;6186;52.022;4.692;2023-05-07T03:59:02;8.75;8.00;5.00
12246;PMS7003;6186;52.022;4.692;2023-05-07T04:01:28;10.25;9.50;5.00
12246;PMS7003;6186;52.022;4.692;2023-05-07T04:03:53;8.00;8.00;5.00
12246;PMS7003;6186;52.022;4.692;2023-05-07T04:06:18;8.25;8.25;5.00
12246;PMS7003;6186;52.022;4.692;2023-05-07T04:08:43;9.00;9.00;5.75
12246;PMS7003;6186;52.022;4.692;2023-05-07T04:11:09;11.25;10.00;6.00
12246;PMS7003;6186;52.022;4.692;2023-05-07T04:13:34;9.50;9.25;5.75
12246;PMS7003;6186;52.022;4.692;2023-05-07T04:16:00;10.25;10.25;6.00
12246;PMS7003;6186;52.022;4.692;2023-05-07T04:18:27;10.40;9.60;5.20
12246;PMS7003;6186;52.022;4.692;2023-05-07T04:20:52;9.50;8.00;5.00
12246;PMS7003;6186;52.022;4.692;2023-05-07T04:23:17;11.50;10.75;6.75
12246;PMS7003;6186;52.022;4.692;2023-05-07T04:25:42;9.00;9.00;5.25
12246;PMS7003;6186;52.022;4.692;2023-05-07T04:28:07;10.25;9.75;6.00
12246;PMS7003;6186;52.022;4.692;2023-05-07T04:30:33;11.25;9.25;6.00
12246;PMS7003;6186;52.022;4.692;2023-05-07T04:32:58;12.00;11.00;6.75
12246;PMS7003;6186;52.022;4.692;2023-05-07T04:35:23;11.25;11.00;6.00
12246;PMS7003;6186;52.022;4.692;2023-05-07T04:37:48;11.50;10.25;6.00
12246;PMS7003;6186;52.022;4.692;2023-05-07T04:40:14;11.00;9.00;6.00
12246;PMS7003;6186;52.022;4.692;2023-05-07T04:42:39;9.75;9.75;5.25
12246;PMS7003;6186;52.022;4.692;2023-05-07T04:45:04;11.25;10.00;6.00
12246;PMS7003;6186;52.022;4.692;2023-05-07T04:47:30;9.00;9.00;6.00
12246;PMS7003;6186;52.022;4.692;2023-05-07T04:49:55;10.25;10.25;5.50
12246;PMS7003;6186;52.022;4.692;2023-05-07T04:52:22;10.00;9.20;5.00
12246;PMS7003;6186;52.022;4.692;2023-05-07T04:54:47;10.00;10.00;6.00
12246;PMS7003;6186;52.022;4.692;2023-05-07T04:57:12;9.75;9.00;5.00
12246;PMS7003;6186;52.022;4.692;2023-05-07T04:59:37;9.75;9.75;5.75
12246;PMS7003;6186;52.022;4.692;2023-05-07T05:02:03;9.25;8.50;5.75
12246;PMS7003;6186;52.022;4.692;2023-05-07T05:04:28;10.25;10.25;6.00
12246;PMS7003;6186;52.022;4.692;2023-05-07T05:06:53;7.75;7.75;5.00
12246;PMS7003;6186;52.022;4.692;2023-05-07T05:09:18;11.25;10.25;6.00
12246;PMS7003;6186;52.022;4.692;2023-05-07T05:11:44;10.25;9.50;5.00
12246;PMS7003;6186;52.022;4.692;2023-05-07T05:14:09;9.00;8.75;6.00
12246;PMS7003;6186;52.022;4.692;2023-05-07T05:16:34;11.75;11.75;7.00
12246;PMS7003;6186;52.022;4.692;2023-05-07T05:19:01;12.25;10.75;7.00
12246;PMS7003;6186;52.022;4.692;2023-05-07T05:21:27;14.20;12.00;7.00
12246;PMS7003;6186;52.022;4.692;2023-05-07T05:23:52;11.50;9.75;6.00
12246;PMS7003;6186;52.022;4.692;2023-05-07T05:26:17;14.00;11.50;6.00
12246;PMS7003;6186;52.022;4.692;2023-05-07T05:28:42;10.50;10.50;6.75
12246;PMS7003;6186;52.022;4.692;2023-05-07T05:31:08;13.00;11.25;7.50
12246;PMS7003;6186;52.022;4.692;2023-05-07T05:33:33;12.75;12.25;7.00
12246;PMS7003;6186;52.022;4.692;2023-05-07T05:35:58;12.25;12.25;7.50
12246;PMS7003;6186;52.022;4.692;2023-05-07T05:38:23;16.00;12.75;8.25
12246;PMS7003;6186;52.022;4.692;2023-05-07T05:40:49;14.00;12.25;7.00
12246;PMS7003;6186;52.022;4.692;2023-05-07T05:43:14;13.75;12.25;7.00
12246;PMS7003;6186;52.022;4.692;2023-05-07T05:45:39;14.00;14.00;8.00
12246;PMS7003;6186;52.022;4.692;2023-05-07T05:48:05;12.25;11.75;7.00
12246;PMS7003;6186;52.022;4.692;2023-05-07T05:50:30;13.50;12.50;7.25
12246;PMS7003;6186;52.022;4.692;2023-05-07T05:52:55;17.00;14.25;8.00
12246;PMS7003;6186;52.022;4.692;2023-05-07T05:55:21;11.00;10.75;7.00
12246;PMS7003;6186;52.022;4.692;2023-05-07T05:57:46;16.00;15.75;8.00
12246;PMS7003;6186;52.022;4.692;2023-05-07T06:00:11;15.25;12.00;7.00
12246;PMS7003;6186;52.022;4.692;2023-05-07T06:02:37;12.00;12.00;7.40
12246;PMS7003;6186;52.022;4.692;2023-05-07T06:05:03;17.50;16.75;9.00
12246;PMS7003;6186;52.022;4.692;2023-05-07T06:07:28;15.40;15.00;9.20
12246;PMS7003;6186;52.022;4.692;2023-05-07T06:09:53;14.00;12.75;8.75
12246;PMS7003;6186;52.022;4.692;2023-05-07T06:12:19;16.75;15.00;9.00
12246;PMS7003;6186;52.022;4.692;2023-05-07T06:14:44;14.75;14.75;9.00
12246;PMS7003;6186;52.022;4.692;2023-05-07T06:17:09;12.75;12.25;8.25
12246;PMS7003;6186;52.022;4.692;2023-05-07T06:19:34;16.50;15.50;8.75
12246;PMS7003;6186;52.022;4.692;2023-05-07T06:22:00;18.25;17.00;10.25
12246;PMS7003;6186;52.022;4.692;2023-05-07T06:24:25;12.50;11.50;8.25
12246;PMS7003;6186;52.022;4.692;2023-05-07T06:26:50;13.75;12.50;8.25
12246;PMS7003;6186;52.022;4.692;2023-05-07T06:29:15;19.00;17.00;9.00
12246;PMS7003;6186;52.022;4.692;2023-05-07T06:31:40;17.25;17.00;12.00
12246;PMS7003;6186;52.022;4.692;2023-05-07T06:34:06;17.00;16.00;9.50
12246;PMS7003;6186;52.022;4.692;2023-05-07T06:36:31;14.80;14.00;9.00
12246;PMS7003;6186;52.022;4.692;2023-05-07T06:38:57;19.50;17.75;10.00
12246;PMS7003;6186;52.022;4.692;2023-05-07T06:41:22;26.00;22.00;15.00
12246;PMS7003;6186;52.022;4.692;2023-05-07T06:43:47;20.25;18.75;11.00
12246;PMS7003;6186;52.022;4.692;2023-05-07T06:46:12;19.00;18.00;13.00
12246;PMS7003;6186;52.022;4.692;2023-05-07T06:48:38;17.50;16.00;10.00
12246;PMS7003;6186;52.022;4.692;2023-05-07T06:51:03;20.25;20.00;13.00
12246;PMS7003;6186;52.022;4.692;2023-05-07T06:53:28;19.25;18.25;12.00
12246;PMS7003;6186;52.022;4.692;2023-05-07T06:55:54;17.50;15.25;9.25
12246;PMS7003;6186;52.022;4.692;2023-05-07T06:58:19;20.00;17.25;10.75
12246;PMS7003;6186;52.022;4.692;2023-05-07T07:00:44;18.50;17.00;10.00
12246;PMS7003;6186;52.022;4.692;2023-05-07T07:03:09;20.25;17.25;10.00
12246;PMS7003;6186;52.022;4.692;2023-05-07T07:05:35;21.25;18.75;12.25
12246;PMS7003;6186;52.022;4.692;2023-05-07T07:08:00;17.00;16.00;10.25
12246;PMS7003;6186;52.022;4.692;2023-05-07T07:10:25;14.75;13.50;8.75
12246;PMS7003;6186;52.022;4.692;2023-05-07T07:12:50;16.00;15.25;9.00
12246;PMS7003;6186;52.022;4.692;2023-05-07T07:15:15;15.50;13.25;8.00
12246;PMS7003;6186;52.022;4.692;2023-05-07T07:17:41;16.25;15.50;8.50
12246;PMS7003;6186;52.022;4.692;2023-05-07T07:20:07;13.25;12.75;8.00
12246;PMS7003;6186;52.022;4.692;2023-05-07T07:22:33;15.60;13.00;7.20
12246;PMS7003;6186;52.022;4.692;2023-05-07T07:24:58;16.25;14.50;8.00
12246;PMS7003;6186;52.022;4.692;2023-05-07T07:27:23;16.25;16.00;9.00
12246;PMS7003;6186;52.022;4.692;2023-05-07T07:29:48;20.00;17.75;11.00
12246;PMS7003;6186;52.022;4.692;2023-05-07T07:32:14;20.25;18.00;11.00
12246;PMS7003;6186;52.022;4.692;2023-05-07T07:34:39;21.00;20.00;11.00
12246;PMS7003;6186;52.022;4.692;2023-05-07T07:37:04;20.50;18.25;11.00
12246;PMS7003;6186;52.022;4.692;2023-05-07T07:39:29;18.75;18.00;11.00
12246;PMS7003;6186;52.022;4.692;2023-05-07T07:41:55;17.50;16.75;10.75
12246;PMS7003;6186;52.022;4.692;2023-05-07T07:44:20;18.75;16.50;10.00
12246;PMS7003;6186;52.022;4.692;2023-05-07T07:46:45;14.50;13.25;9.00
12246;PMS7003;6186;52.022;4.692;2023-05-07T07:49:10;15.50;14.75;9.50
12246;PMS7003;6186;52.022;4.692;2023-05-07T07:51:36;14.50;14.25;9.00
12246;PMS7003;6186;52.022;4.692;2023-05-07T07:54:01;15.00;14.00;8.00
12246;PMS7003;6186;52.022;4.692;2023-05-07T07:56:26;16.25;15.50;9.75
12246;PMS7003;6186;52.022;4.692;2023-05-07T07:58:51;15.25;15.00;9.25
12246;PMS7003;6186;52.022;4.692;2023-05-07T08:01:17;15.50;15.00;9.50
12246;PMS7003;6186;52.022;4.692;2023-05-07T08:03:42;15.75;14.50;9.00
12246;PMS7003;6186;52.022;4.692;2023-05-07T08:06:08;16.00;15.00;9.20
12246;PMS7003;6186;52.022;4.692;2023-05-07T08:08:33;19.00;17.50;12.00
12246;PMS7003;6186;52.022;4.692;2023-05-07T08:10:58;18.25;17.00;10.25
12246;PMS7003;6186;52.022;4.692;2023-05-07T08:13:23;16.75;16.00;10.00
12246;PMS7003;6186;52.022;4.692;2023-05-07T08:15:49;17.50;15.00;9.00
12246;PMS7003;6186;52.022;4.692;2023-05-07T08:18:14;17.00;15.00;10.25
12246;PMS7003;6186;52.022;4.692;2023-05-07T08:20:39;17.75;16.50;10.50
12246;PMS7003;6186;52.022;4.692;2023-05-07T08:23:05;16.25;13.00;8.00
12246;PMS7003;6186;52.022;4.692;2023-05-07T08:25:30;16.00;13.00;8.75
12246;PMS7003;6186;52.022;4.692;2023-05-07T08:27:57;16.80;15.80;8.80
12246;PMS7003;6186;52.022;4.692;2023-05-07T08:30:22;12.75;11.25;7.25
12246;PMS7003;6186;52.022;4.692;2023-05-07T08:32:47;10.75;10.25;6.00
12246;PMS7003;6186;52.022;4.692;2023-05-07T08:35:13;12.75;12.00;7.00
12246;PMS7003;6186;52.022;4.692;2023-05-07T08:37:38;9.00;8.50;4.00
12246;PMS7003;6186;52.022;4.692;2023-05-07T08:40:03;13.25;9.50;6.00
12246;PMS7003;6186;52.022;4.692;2023-05-07T08:42:29;13.00;11.40;6.40
12246;PMS7003;6186;52.022;4.692;2023-05-07T08:44:56;10.60;9.40;5.40
12246;PMS7003;6186;52.022;4.692;2023-05-07T08:47:22;12.60;11.40;7.00
12246;PMS7003;6186;52.022;4.692;2023-05-07T08:49:50;11.60;11.00;7.40
12246;PMS7003;6186;52.022;4.692;2023-05-07T08:52:17;14.60;12.20;7.60
12246;PMS7003;6186;52.022;4.692;2023-05-07T08:54:42;13.00;12.20;8.40
12246;PMS7003;6186;52.022;4.692;2023-05-07T08:57:09;13.20;11.20;7.60
12246;PMS7003;6186;52.022;4.692;2023-05-07T08:59:34;9.50;8.25;5.25
12246;PMS7003;6186;52.022;4.692;2023-05-07T09:01:59;9.25;8.75;5.75
12246;PMS7003;6186;52.022;4.692;2023-05-07T09:04:25;10.25;9.50;5.25
12246;PMS7003;6186;52.022;4.692;2023-05-07T09:06:50;10.00;9.00;6.00
12246;PMS7003;6186;52.022;4.692;2023-05-07T09:09:16;14.50;11.75;7.75
12246;PMS7003;6186;52.022;4.692;2023-05-07T09:11:42;13.80;11.80;6.60
12246;PMS7003;6186;52.022;4.692;2023-05-07T09:14:07;8.50;8.25;4.25
12246;PMS7003;6186;52.022;4.692;2023-05-07T09:16:32;7.00;6.50;4.00
12246;PMS7003;6186;52.022;4.692;2023-05-07T09:18:58;7.25;7.25;4.25
12246;PMS7003;6186;52.022;4.692;2023-05-07T09:21:24;10.20;9.60;5.40
12246;PMS7003;6186;52.022;4.692;2023-05-07T09:23:53;9.25;8.25;5.25
12246;PMS7003;6186;52.022;4.692;2023-05-07T09:26:23;8.20;8.20;4.20
12246;PMS7003;6186;52.022;4.692;2023-05-07T09:28:49;11.20;9.20;6.00
12246;PMS7003;6186;52.022;4.692;2023-05-07T09:31:15;10.00;9.75;6.50
12246;PMS7003;6186;52.022;4.692;2023-05-07T09:33:40;8.50;7.75;4.00
12246;PMS7003;6186;52.022;4.692;2023-05-07T09:36:06;9.50;9.25;5.50
12246;PMS7003;6186;52.022;4.692;2023-05-07T09:38:32;10.80;10.00;6.00
12246;PMS7003;6186;52.022;4.692;2023-05-07T09:41:16;9.20;8.40;5.00
12246;PMS7003;6186;52.022;4.692;2023-05-07T09:43:41;9.80;9.20;5.40
12246;PMS7003;6186;52.022;4.692;2023-05-07T09:46:07;12.50;11.50;6.25
12246;PMS7003;6186;52.022;4.692;2023-05-07T09:48:35;9.40;9.40;5.60
12246;PMS7003;6186;52.022;4.692;2023-05-07T09:51:02;6.80;6.40;4.00
12246;PMS7003;6186;52.022;4.692;2023-05-07T09:53:36;8.20;7.20;4.00
12246;PMS7003;6186;52.022;4.692;2023-05-07T09:56:02;9.00;8.80;5.00
12246;PMS7003;6186;52.022;4.692;2023-05-07T09:58:28;7.80;7.40;4.00
12246;PMS7003;6186;52.022;4.692;2023-05-07T10:00:55;5.60;5.00;3.00
12246;PMS7003;6186;52.022;4.692;2023-05-07T10:03:22;6.80;6.00;4.00
12246;PMS7003;6186;52.022;4.692;2023-05-07T10:05:49;7.40;6.60;3.80
12246;PMS7003;6186;52.022;4.692;2023-05-07T10:08:15;7.40;7.40;4.00
12246;PMS7003;6186;52.022;4.692;2023-05-07T10:10:40;6.00;6.00;3.25
12246;PMS7003;6186;52.022;4.692;2023-05-07T10:13:06;6.50;5.50;2.25
12246;PMS7003;6186;52.022;4.692;2023-05-07T10:15:32;5.80;5.80;3.40
12246;PMS7003;6186;52.022;4.692;2023-05-07T10:17:58;8.00;6.80;4.00
12246;PMS7003;6186;52.022;4.692;2023-05-07T10:20:23;8.75;8.75;5.00
12246;PMS7003;6186;52.022;4.692;2023-05-07T10:22:50;7.20;7.20;4.20
12246;PMS7003;6186;52.022;4.692;2023-05-07T10:25:18;7.00;7.00;4.40
12246;PMS7003;6186;52.022;4.692;2023-05-07T10:27:47;5.00;5.00;3.00
12246;PMS7003;6186;52.022;4.692;2023-05-07T10:33:23;4.20;4.00;2.00
12246;PMS7003;6186;52.022;4.692;2023-05-07T10:35:52;9.00;6.60;3.80
12246;PMS7003;6186;52.022;4.692;2023-05-07T10:38:22;7.20;6.80;3.80
12246;PMS7003;6186;52.022;4.692;2023-05-07T10:40:47;6.00;6.00;3.00
12246;PMS7003;6186;52.022;4.692;2023-05-07T10:43:12;7.00;6.00;3.00
12246;PMS7003;6186;52.022;4.692;2023-05-07T10:45:38;7.50;7.00;3.25
12246;PMS7003;6186;52.022;4.692;2023-05-07T10:48:13;5.00;5.00;3.00
12246;PMS7003;6186;52.022;4.692;2023-05-07T10:50:44;5.60;5.60;3.00
12246;PMS7003;6186;52.022;4.692;2023-05-07T10:55:41;7.20;7.20;4.00
12246;PMS7003;6186;52.022;4.692;2023-05-07T10:58:25;7.00;7.00;4.00
12246;PMS7003;6186;52.022;4.692;2023-05-07T11:00:57;6.60;6.00;3.00
12246;PMS7003;6186;52.022;4.692;2023-05-07T11:03:27;6.80;6.80;5.00
12246;PMS7003;6186;52.022;4.692;2023-05-07T11:06:12;7.00;6.60;4.20
12246;PMS7003;6186;52.022;4.692;2023-05-07T11:08:55;8.00;7.80;5.00
12246;PMS7003;6186;52.022;4.692;2023-05-07T11:14:12;9.60;7.40;5.00
12246;PMS7003;6186;52.022;4.692;2023-05-07T11:16:39;9.00;8.60;5.00
12246;PMS7003;6186;52.022;4.692;2023-05-07T11:19:06;7.20;6.80;4.00
12246;PMS7003;6186;52.022;4.692;2023-05-07T11:21:38;8.00;7.75;4.00
12246;PMS7003;6186;52.022;4.692;2023-05-07T11:24:05;9.40;9.00;5.00
12246;PMS7003;6186;52.022;4.692;2023-05-07T11:26:53;8.00;7.00;3.60
12246;PMS7003;6186;52.022;4.692;2023-05-07T11:29:18;6.40;6.00;3.40
12246;PMS7003;6186;52.022;4.692;2023-05-07T11:31:52;6.00;5.80;4.00
12246;PMS7003;6186;52.022;4.692;2023-05-07T11:34:22;7.00;7.00;4.00
12246;PMS7003;6186;52.022;4.692;2023-05-07T11:36:49;6.80;6.80;3.80
12246;PMS7003;6186;52.022;4.692;2023-05-07T11:39:31;6.60;6.20;3.00
12246;PMS7003;6186;52.022;4.692;2023-05-07T11:41:57;5.40;5.20;3.80
12246;PMS7003;6186;52.022;4.692;2023-05-07T11:44:23;8.00;7.25;4.00
12246;PMS7003;6186;52.022;4.692;2023-05-07T11:46:48;8.50;7.50;4.00
12246;PMS7003;6186;52.022;4.692;2023-05-07T11:49:13;5.50;5.00;3.25
12246;PMS7003;6186;52.022;4.692;2023-05-07T11:51:39;9.00;9.00;6.00
12246;PMS7003;6186;52.022;4.692;2023-05-07T11:54:04;6.50;6.25;3.50
12246;PMS7003;6186;52.022;4.692;2023-05-07T11:56:33;8.00;7.00;5.00
12246;PMS7003;6186;52.022;4.692;2023-05-07T11:58:59;10.20;8.80;5.40
12246;PMS7003;6186;52.022;4.692;2023-05-07T12:01:24;9.50;8.25;5.25
12246;PMS7003;6186;52.022;4.692;2023-05-07T12:03:50;7.00;7.00;4.00
12246;PMS7003;6186;52.022;4.692;2023-05-07T12:06:15;8.50;7.75;4.00
12246;PMS7003;6186;52.022;4.692;2023-05-07T12:08:42;9.40;9.00;5.60
12246;PMS7003;6186;52.022;4.692;2023-05-07T12:11:09;11.80;10.60;6.80
12246;PMS7003;6186;52.022;4.692;2023-05-07T12:13:40;11.60;11.60;7.00
12246;PMS7003;6186;52.022;4.692;2023-05-07T12:16:06;8.40;8.00;6.00
12246;PMS7003;6186;52.022;4.692;2023-05-07T12:18:32;10.00;10.00;5.60
12246;PMS7003;6186;52.022;4.692;2023-05-07T12:20:59;7.80;7.80;5.00
12246;PMS7003;6186;52.022;4.692;2023-05-07T12:23:24;11.75;9.50;6.00
12246;PMS7003;6186;52.022;4.692;2023-05-07T12:25:50;8.00;7.00;4.00
12246;PMS7003;6186;52.022;4.692;2023-05-07T12:28:16;8.00;7.50;5.00
12246;PMS7003;6186;52.022;4.692;2023-05-07T12:30:42;10.20;9.80;5.40
12246;PMS7003;6186;52.022;4.692;2023-05-07T12:33:09;8.40;7.40;5.00
12246;PMS7003;6186;52.022;4.692;2023-05-07T12:35:41;9.00;8.80;5.80
12246;PMS7003;6186;52.022;4.692;2023-05-07T12:38:08;10.00;9.00;5.60
12246;PMS7003;6186;52.022;4.692;2023-05-07T12:40:35;8.80;8.60;5.80
12246;PMS7003;6186;52.022;4.692;2023-05-07T12:43:02;7.00;7.00;4.80
12246;PMS7003;6186;52.022;4.692;2023-05-07T12:45:28;10.00;9.00;5.00
12246;PMS7003;6186;52.022;4.692;2023-05-07T12:47:53;8.00;8.00;5.75
12246;PMS7003;6186;52.022;4.692;2023-05-07T12:50:18;9.50;8.50;5.00
12246;PMS7003;6186;52.022;4.692;2023-05-07T12:52:45;10.00;9.00;5.25
12246;PMS7003;6186;52.022;4.692;2023-05-07T12:55:12;8.60;8.00;5.00
12246;PMS7003;6186;52.022;4.692;2023-05-07T12:57:39;10.00;10.00;6.00
12246;PMS7003;6186;52.022;4.692;2023-05-07T13:00:06;11.60;10.60;6.00
12246;PMS7003;6186;52.022;4.692;2023-05-07T13:02:38;12.00;11.00;7.00
12246;PMS7003;6186;52.022;4.692;2023-05-07T13:05:05;10.40;10.40;6.80
12246;PMS7003;6186;52.022;4.692;2023-05-07T13:07:30;9.00;9.00;6.00
12246;PMS7003;6186;52.022;4.692;2023-05-07T13:09:56;9.25;8.25;4.50
12246;PMS7003;6186;52.022;4.692;2023-05-07T13:12:21;10.00;10.00;5.50
12246;PMS7003;6186;52.022;4.692;2023-05-07T13:14:46;10.50;10.50;5.75
12246;PMS7003;6186;52.022;4.692;2023-05-07T13:17:11;11.50;10.50;7.00
12246;PMS7003;6186;52.022;4.692;2023-05-07T13:19:37;10.75;9.75;5.50
12246;PMS7003;6186;52.022;4.692;2023-05-07T13:22:02;11.50;10.50;7.00
12246;PMS7003;6186;52.022;4.692;2023-05-07T13:24:27;9.50;9.00;5.50
12246;PMS7003;6186;52.022;4.692;2023-05-07T13:26:53;9.00;8.00;5.00
12246;PMS7003;6186;52.022;4.692;2023-05-07T13:29:18;9.50;9.50;5.00
12246;PMS7003;6186;52.022;4.692;2023-05-07T13:31:43;8.00;8.00;5.50
12246;PMS7003;6186;52.022;4.692;2023-05-07T13:34:08;10.00;8.00;5.25
12246;PMS7003;6186;52.022;4.692;2023-05-07T13:36:33;10.00;10.00;6.25
12246;PMS7003;6186;52.022;4.692;2023-05-07T13:38:59;10.25;10.00;6.50
12246;PMS7003;6186;52.022;4.692;2023-05-07T13:41:24;10.00;10.00;6.00
12246;PMS7003;6186;52.022;4.692;2023-05-07T13:43:49;9.50;9.00;5.00
12246;PMS7003;6186;52.022;4.692;2023-05-07T13:46:14;11.75;11.00;7.00
12246;PMS7003;6186;52.022;4.692;2023-05-07T13:48:39;15.00;14.25;9.00
12246;PMS7003;6186;52.022;4.692;2023-05-07T13:51:05;10.75;9.75;6.00
12246;PMS7003;6186;52.022;4.692;2023-05-07T13:53:30;9.25;8.25;5.25
12246;PMS7003;6186;52.022;4.692;2023-05-07T13:55:55;9.25;8.50;5.00
12246;PMS7003;6186;52.022;4.692;2023-05-07T13:58:20;9.50;9.25;5.25
12246;PMS7003;6186;52.022;4.692;2023-05-07T14:00:46;7.75;7.00;4.50
12246;PMS7003;6186;52.022;4.692;2023-05-07T14:03:11;9.25;9.25;6.00
12246;PMS7003;6186;52.022;4.692;2023-05-07T14:05:36;9.00;9.00;5.50
12246;PMS7003;6186;52.022;4.692;2023-05-07T14:08:01;9.75;9.25;5.75
12246;PMS7003;6186;52.022;4.692;2023-05-07T14:10:27;12.50;11.00;5.75
12246;PMS7003;6186;52.022;4.692;2023-05-07T14:12:52;10.75;10.50;7.25
12246;PMS7003;6186;52.022;4.692;2023-05-07T14:15:17;11.00;10.75;6.75
12246;PMS7003;6186;52.022;4.692;2023-05-07T14:17:43;9.50;9.50;5.25
12246;PMS7003;6186;52.022;4.692;2023-05-07T14:20:09;9.40;9.40;5.80